createdAt,value
2018-07-14T00:02:33.935Z,14.77
2018-07-14T00:05:09.463Z,14.68
2018-07-14T00:07:55.647Z,14.60
2018-07-14T00:10:29.104Z,14.54
2018-07-14T00:15:41.804Z,14.52
2018-07-14T00:18:15.497Z,14.42
2018-07-14T00:20:49.084Z,14.36
2018-07-14T00:25:58.940Z,14.58
2018-07-14T00:28:33.341Z,14.57
2018-07-14T00:31:09.580Z,14.54
2018-07-14T00:36:21.033Z,14.44
2018-07-14T00:38:56.308Z,14.45
2018-07-14T00:41:31.294Z,14.38
2018-07-14T00:44:05.798Z,14.33
2018-07-14T00:46:39.217Z,14.32
2018-07-14T00:49:12.249Z,14.30
2018-07-14T00:54:21.971Z,14.46
2018-07-14T00:56:56.161Z,14.45
2018-07-14T00:59:28.838Z,14.43
2018-07-14T01:02:02.719Z,14.40
2018-07-14T01:04:35.699Z,14.44
2018-07-14T01:07:08.993Z,14.45
2018-07-14T01:12:19.754Z,14.47
2018-07-14T01:17:29.447Z,14.48
2018-07-14T01:22:41.527Z,14.44
2018-07-14T01:27:58.672Z,14.45
2018-07-14T01:30:31.010Z,14.36
2018-07-14T01:33:06.554Z,14.25
2018-07-14T01:35:40.897Z,14.16
2018-07-14T01:38:15.023Z,14.21
2018-07-14T01:40:49.316Z,14.25
2018-07-14T01:45:55.550Z,14.39
2018-07-14T01:48:24.664Z,14.32
2018-07-14T01:50:53.796Z,14.31
2018-07-14T01:55:58.727Z,14.42
2018-07-14T01:58:27.769Z,14.47
2018-07-14T02:00:56.836Z,14.60
2018-07-14T02:03:27.897Z,14.75
2018-07-14T02:05:56.950Z,14.82
2018-07-14T02:08:26.006Z,14.66
2018-07-14T02:14:09.109Z,14.62
2018-07-14T02:16:38.195Z,14.58
2018-07-14T02:19:07.267Z,14.52
2018-07-14T02:24:12.073Z,14.58
2018-07-14T02:26:41.131Z,14.50
2018-07-14T02:29:11.168Z,14.43
2018-07-14T02:31:41.218Z,14.29
2018-07-14T02:34:10.275Z,14.21
2018-07-14T02:36:39.383Z,14.12
2018-07-14T02:39:10.443Z,14.12
2018-07-14T02:41:39.500Z,14.12
2018-07-14T02:44:08.548Z,14.12
2018-07-14T02:51:49.052Z,14.37
2018-07-14T02:54:18.136Z,14.46
2018-07-14T02:56:47.162Z,14.38
2018-07-14T02:59:16.293Z,14.35
2018-07-14T03:04:21.110Z,14.45
2018-07-14T03:06:52.153Z,14.59
2018-07-14T03:09:21.196Z,14.57
2018-07-14T03:11:50.410Z,14.56
2018-07-14T03:14:19.452Z,14.51
2018-07-14T03:16:50.481Z,14.38
2018-07-14T03:19:19.546Z,14.36
2018-07-14T03:21:48.581Z,14.45
2018-07-14T03:24:17.637Z,14.59
2018-07-14T03:26:46.682Z,14.62
2018-07-14T03:29:19.754Z,14.53
2018-07-14T03:31:52.670Z,14.34
2018-07-14T03:36:57.422Z,14.22
2018-07-14T03:39:27.389Z,13.84
2018-07-14T03:41:56.439Z,13.71
2018-07-14T03:44:25.662Z,13.83
2018-07-14T03:46:54.718Z,13.94
2018-07-14T03:49:23.784Z,13.93
2018-07-14T03:51:52.842Z,13.80
2018-07-14T03:54:22.933Z,13.93
2018-07-14T03:56:52.025Z,13.84
2018-07-14T03:59:21.065Z,13.80
2018-07-14T04:01:50.125Z,13.75
2018-07-14T04:04:19.345Z,13.73
2018-07-14T04:09:26.334Z,13.88
2018-07-14T04:11:56.453Z,14.08
2018-07-14T04:14:29.653Z,14.07
2018-07-14T04:17:04.177Z,14.15
2018-07-14T04:19:33.239Z,14.37
2018-07-14T04:22:02.463Z,14.57
2018-07-14T04:24:31.523Z,14.78
2018-07-14T04:29:37.252Z,15.26
2018-07-14T04:34:42.315Z,15.81
2018-07-14T04:37:11.367Z,16.03
2018-07-14T04:39:40.427Z,16.11
2018-07-14T04:42:09.501Z,15.95
2018-07-14T04:47:16.201Z,15.86
2018-07-14T04:49:46.389Z,15.99
2018-07-14T04:52:15.505Z,15.94
2018-07-14T04:54:44.554Z,16.28
2018-07-14T04:57:13.616Z,16.56
2018-07-14T04:59:43.009Z,16.81
2018-07-14T05:02:12.065Z,16.96
2018-07-14T05:04:41.205Z,17.01
2018-07-14T05:07:11.239Z,16.93
2018-07-14T05:12:16.024Z,17.33
2018-07-14T05:14:46.069Z,17.34
2018-07-14T05:17:15.147Z,17.43
2018-07-14T05:19:44.175Z,17.34
2018-07-14T05:22:14.257Z,17.41
2018-07-14T05:24:43.316Z,17.52
2018-07-14T05:27:12.375Z,17.66
2018-07-14T05:29:41.793Z,17.78
2018-07-14T05:32:14.420Z,18.07
2018-07-14T05:34:43.776Z,18.32
2018-07-14T05:37:12.825Z,18.40
2018-07-14T05:39:41.873Z,18.33
2018-07-14T05:42:12.386Z,18.61
2018-07-14T05:44:41.461Z,19.14
2018-07-14T05:47:12.499Z,19.63
2018-07-14T05:49:41.551Z,19.78
2018-07-14T05:52:12.933Z,20.15
2018-07-14T05:57:17.930Z,20.18
2018-07-14T05:59:47.158Z,20.31
2018-07-14T06:02:16.221Z,20.43
2018-07-14T06:07:23.014Z,20.54
2018-07-14T06:09:52.057Z,20.23
2018-07-14T06:12:22.160Z,20.08
2018-07-14T06:14:51.411Z,20.28
2018-07-14T06:19:56.202Z,20.82
2018-07-14T06:22:26.363Z,21.57
2018-07-14T06:24:58.646Z,21.88
2018-07-14T06:27:27.719Z,22.28
2018-07-14T06:29:56.776Z,22.41
2018-07-14T06:32:27.292Z,22.44
2018-07-14T06:34:56.808Z,22.23
2018-07-14T06:37:27.846Z,22.49
2018-07-14T06:39:56.904Z,22.50
2018-07-14T06:42:28.932Z,22.26
2018-07-14T06:44:59.995Z,22.60
2018-07-14T06:47:32.025Z,22.85
2018-07-14T06:50:03.080Z,22.69
2018-07-14T06:52:33.310Z,22.78
2018-07-14T06:55:05.984Z,22.89
2018-07-14T06:57:35.030Z,23.11
2018-07-14T07:00:04.100Z,23.23
2018-07-14T07:02:34.101Z,23.01
2018-07-14T07:05:05.149Z,23.07
2018-07-14T07:07:35.751Z,22.74
2018-07-14T07:10:04.792Z,22.73
2018-07-14T07:12:34.797Z,22.59
2018-07-14T07:15:05.837Z,22.45
2018-07-14T07:17:35.555Z,22.39
2018-07-14T07:20:06.906Z,22.41
2018-07-14T07:22:35.965Z,22.49
2018-07-14T07:25:05.015Z,22.74
2018-07-14T07:27:37.880Z,22.89
2018-07-14T07:30:07.918Z,22.94
2018-07-14T07:35:12.795Z,23.39
2018-07-14T07:37:41.981Z,23.29
2018-07-14T07:40:11.186Z,23.23
2018-07-14T07:42:40.446Z,23.46
2018-07-14T07:47:45.252Z,23.84
2018-07-14T07:50:14.693Z,23.85
2018-07-14T07:55:20.541Z,24.06
2018-07-14T07:57:53.793Z,24.08
2018-07-14T08:00:26.585Z,23.98
2018-07-14T08:05:32.403Z,24.52
2018-07-14T08:08:03.393Z,24.26
2018-07-14T08:10:34.437Z,24.05
2018-07-14T08:13:03.736Z,24.44
2018-07-14T08:15:32.789Z,24.52
2018-07-14T08:18:01.852Z,24.68
2018-07-14T08:23:06.795Z,24.51
2018-07-14T08:25:36.655Z,24.70
2018-07-14T08:28:09.866Z,24.94
2018-07-14T08:30:38.924Z,25.14
2018-07-14T08:33:12.100Z,25.45
2018-07-14T08:38:17.127Z,25.51
2018-07-14T08:40:48.112Z,26.30
2018-07-14T08:43:17.174Z,26.29
2018-07-14T08:45:46.463Z,26.52
2018-07-14T08:50:51.282Z,26.55
2018-07-14T08:53:24.745Z,26.01
2018-07-14T08:58:29.638Z,26.25
2018-07-14T09:01:00.195Z,26.37
2018-07-14T09:08:40.771Z,27.28
2018-07-14T09:11:09.829Z,26.51
2018-07-14T09:16:14.726Z,26.75
2018-07-14T09:18:44.845Z,27.06
2018-07-14T09:21:14.174Z,26.85
2018-07-14T09:23:46.647Z,27.58
2018-07-14T09:26:15.704Z,27.87
2018-07-14T09:28:44.742Z,28.82
2018-07-14T09:31:13.960Z,29.78
2018-07-14T09:33:43.008Z,30.99
2018-07-14T09:36:14.091Z,30.97
2018-07-14T09:38:43.220Z,32.41
2018-07-14T09:41:12.702Z,32.60
2018-07-14T09:43:41.829Z,32.77
2018-07-14T09:46:10.893Z,32.50
2018-07-14T09:48:40.281Z,31.21
2018-07-14T09:53:45.132Z,33.17
2018-07-14T09:56:15.510Z,34.95
2018-07-14T09:58:44.573Z,36.10
2018-07-14T10:01:14.556Z,36.59
2018-07-14T10:03:43.638Z,35.41
2018-07-14T10:06:14.848Z,35.61
2018-07-14T10:08:43.900Z,33.09
2018-07-14T10:11:12.966Z,32.49
2018-07-14T10:13:42.556Z,33.32
2018-07-14T10:16:11.597Z,34.65
2018-07-14T10:18:41.618Z,34.74
2018-07-14T10:21:10.694Z,35.45
2018-07-14T10:23:40.104Z,35.26
2018-07-14T10:26:09.198Z,36.58
2018-07-14T10:28:38.261Z,37.77
2018-07-14T10:31:11.107Z,39.03
2018-07-14T10:33:40.559Z,40.17
2018-07-14T10:36:10.765Z,40.22
2018-07-14T10:41:15.817Z,39.08
2018-07-14T10:46:22.600Z,42.20
2018-07-14T10:48:52.421Z,43.69
2018-07-14T10:53:58.541Z,37.42
2018-07-14T10:56:27.781Z,35.86
2018-07-14T10:58:56.799Z,34.82
2018-07-14T11:01:25.985Z,32.90
2018-07-14T11:03:55.834Z,30.89
2018-07-14T11:06:24.876Z,29.94
2018-07-14T11:08:53.925Z,30.31
2018-07-14T11:11:23.289Z,31.20
2018-07-14T11:16:30.322Z,33.62
2018-07-14T11:18:59.777Z,34.91
2018-07-14T11:21:28.833Z,37.92
2018-07-14T11:23:57.886Z,39.98
2018-07-14T11:26:27.637Z,41.00
2018-07-14T11:28:57.238Z,42.36
2018-07-14T11:31:26.361Z,42.43
2018-07-14T11:33:56.362Z,43.16
2018-07-14T11:36:25.970Z,43.61
2018-07-14T11:38:56.147Z,44.44
2018-07-14T11:41:25.186Z,44.91
2018-07-14T11:43:54.256Z,43.86
2018-07-14T11:46:23.537Z,44.58
2018-07-14T11:48:56.260Z,44.20
2018-07-14T11:51:25.353Z,44.97
2018-07-14T11:53:54.452Z,44.64
2018-07-14T11:56:23.909Z,44.94
2018-07-14T11:58:52.969Z,45.94
2018-07-14T12:01:22.062Z,44.32
2018-07-14T12:06:27.780Z,44.65
2018-07-14T12:16:44.881Z,46.45
2018-07-14T12:19:14.037Z,46.49
2018-07-14T12:21:43.089Z,45.07
2018-07-14T12:24:12.142Z,46.11
2018-07-14T12:26:42.193Z,44.61
2018-07-14T12:29:11.726Z,44.08
2018-07-14T12:31:41.681Z,43.88
2018-07-14T12:34:10.871Z,43.22
2018-07-14T12:36:40.910Z,39.67
2018-07-14T12:39:10.563Z,35.06
2018-07-14T12:41:39.685Z,34.42
2018-07-14T12:44:08.758Z,33.51
2018-07-14T12:46:38.142Z,32.54
2018-07-14T12:49:08.798Z,32.49
2018-07-14T12:51:38.037Z,31.69
2018-07-14T12:54:09.217Z,32.29
2018-07-14T12:56:39.038Z,31.32
2018-07-14T13:01:44.390Z,31.95
2018-07-14T13:04:13.673Z,35.15
2018-07-14T13:06:42.794Z,38.05
2018-07-14T13:09:11.881Z,41.39
2018-07-14T13:11:41.264Z,43.93
2018-07-14T13:14:11.329Z,44.60
2018-07-14T13:16:40.545Z,45.18
2018-07-14T13:19:10.208Z,44.36
2018-07-14T13:24:15.331Z,45.44
2018-07-14T13:26:45.424Z,44.68
2018-07-14T13:29:14.628Z,39.63
2018-07-14T13:31:43.755Z,39.14
2018-07-14T13:34:14.316Z,41.31
2018-07-14T13:36:43.417Z,41.48
2018-07-14T13:39:12.461Z,43.57
2018-07-14T13:41:41.701Z,43.63
2018-07-14T13:44:11.922Z,43.11
2018-07-14T13:49:19.440Z,45.86
2018-07-14T13:51:49.156Z,44.57
2018-07-14T13:56:59.165Z,45.51
2018-07-14T13:59:28.358Z,43.79
2018-07-14T14:01:58.619Z,41.62
2018-07-14T14:04:27.860Z,39.35
2018-07-14T14:06:57.021Z,38.08
2018-07-14T14:09:26.402Z,36.22
2018-07-14T14:11:55.600Z,34.69
2018-07-14T14:14:25.634Z,34.54
2018-07-14T14:16:56.677Z,32.87
2018-07-14T14:19:26.094Z,32.23
2018-07-14T14:21:55.288Z,31.81
2018-07-14T14:27:00.324Z,31.93
2018-07-14T14:29:29.489Z,32.26
2018-07-14T14:31:58.546Z,33.18
2018-07-14T14:34:28.794Z,33.49
2018-07-14T14:36:57.958Z,32.57
2018-07-14T14:39:26.991Z,31.96
2018-07-14T14:41:56.291Z,29.95
2018-07-14T14:44:25.608Z,29.14
2018-07-14T14:46:54.680Z,28.96
2018-07-14T14:49:23.726Z,28.79
2018-07-14T14:54:28.637Z,28.34
2018-07-14T14:59:34.089Z,27.88
2018-07-14T15:02:03.429Z,27.51
2018-07-14T15:07:08.384Z,27.20
2018-07-14T15:09:38.581Z,26.62
2018-07-14T15:12:10.246Z,26.06
2018-07-14T15:14:39.518Z,25.27
2018-07-14T15:19:45.105Z,20.97
2018-07-14T15:22:21.267Z,18.72
2018-07-14T15:32:49.107Z,18.44
2018-07-14T15:35:23.042Z,18.28
2018-07-14T15:40:31.954Z,18.11
2018-07-14T15:45:38.390Z,19.11
2018-07-14T15:48:07.662Z,19.34
2018-07-14T15:50:42.641Z,20.81
2018-07-14T15:53:12.009Z,23.53
2018-07-14T15:55:44.212Z,22.76
2018-07-14T15:58:13.117Z,21.21
2018-07-14T16:00:42.550Z,22.24
2018-07-14T16:03:13.088Z,22.10
2018-07-14T16:05:42.034Z,22.47
2018-07-14T16:08:10.576Z,23.88
2018-07-14T16:10:39.104Z,26.09
2018-07-14T16:13:09.080Z,27.67
2018-07-14T16:15:37.640Z,26.80
2018-07-14T16:18:06.220Z,24.75
2018-07-14T16:20:35.306Z,24.39
2018-07-14T16:23:03.849Z,22.49
2018-07-14T16:25:32.440Z,21.74
2018-07-14T16:28:01.631Z,21.83
2018-07-14T16:30:30.129Z,22.04
2018-07-14T16:32:58.677Z,22.63
2018-07-14T16:35:28.367Z,22.27
2018-07-14T16:38:00.376Z,22.58
2018-07-14T16:40:28.915Z,22.74
2018-07-14T16:42:57.444Z,23.22
2018-07-14T16:45:26.312Z,23.46
2018-07-14T16:47:55.854Z,22.92
2018-07-14T16:50:24.385Z,22.07
2018-07-14T16:52:54.112Z,21.70
2018-07-14T16:55:22.652Z,22.46
2018-07-14T16:57:51.185Z,21.89
2018-07-14T17:00:20.622Z,21.84
2018-07-14T17:02:50.950Z,21.73
2018-07-14T17:05:19.462Z,21.38
2018-07-14T17:07:47.991Z,21.55
2018-07-14T17:10:16.530Z,21.43
2018-07-14T17:12:46.032Z,21.57
2018-07-14T17:15:22.405Z,21.45
2018-07-14T17:17:52.862Z,20.84
2018-07-14T17:20:21.684Z,20.55
2018-07-14T17:22:51.413Z,20.35
2018-07-14T17:25:20.376Z,20.29
2018-07-14T17:27:48.955Z,20.34
2018-07-14T17:30:17.968Z,20.33
2018-07-14T17:32:48.452Z,20.32
2018-07-14T17:35:16.980Z,20.13
2018-07-14T17:37:45.517Z,20.28
2018-07-14T17:40:14.052Z,20.15
2018-07-14T17:42:43.497Z,20.01
2018-07-14T17:45:12.021Z,20.00
2018-07-14T17:47:41.799Z,20.01
2018-07-14T17:50:10.321Z,20.07
2018-07-14T17:52:38.847Z,20.06
2018-07-14T17:55:10.762Z,19.99
2018-07-14T17:57:41.341Z,19.99
2018-07-14T18:00:11.204Z,20.00
2018-07-14T18:02:39.744Z,19.96
2018-07-14T18:05:08.354Z,19.85
2018-07-14T18:07:37.236Z,19.78
2018-07-14T18:10:06.070Z,19.73
2018-07-14T18:12:34.604Z,19.71
2018-07-14T18:15:03.333Z,19.66
2018-07-14T18:17:32.235Z,19.61
2018-07-14T18:20:01.318Z,19.58
2018-07-14T18:22:31.254Z,19.53
2018-07-14T18:25:07.394Z,19.50
2018-07-14T18:27:37.519Z,19.41
2018-07-14T18:30:07.390Z,19.35
2018-07-14T18:32:36.142Z,19.23
2018-07-14T18:35:04.768Z,19.06
2018-07-14T18:37:33.415Z,19.02
2018-07-14T18:40:01.989Z,18.86
2018-07-14T18:42:30.528Z,18.75
2018-07-14T18:44:59.082Z,18.65
2018-07-14T18:47:27.607Z,18.62
2018-07-14T18:49:56.344Z,18.59
2018-07-14T18:52:25.013Z,18.48
2018-07-14T18:54:53.425Z,18.42
2018-07-14T18:57:22.056Z,18.38
2018-07-14T18:59:50.573Z,18.32
2018-07-14T19:02:19.119Z,18.25
2018-07-14T19:04:47.659Z,18.18
2018-07-14T19:07:16.207Z,18.14
2018-07-14T19:09:44.788Z,18.09
2018-07-14T19:12:13.332Z,18.04
2018-07-14T19:14:43.866Z,18.02
2018-07-14T19:17:12.407Z,17.91
2018-07-14T19:19:41.052Z,17.79
2018-07-14T19:22:09.583Z,17.67
2018-07-14T19:24:39.073Z,17.53
2018-07-14T19:27:07.605Z,17.43
2018-07-14T19:29:36.285Z,17.39
2018-07-14T19:32:04.833Z,17.30
2018-07-14T19:34:33.362Z,17.24
2018-07-14T19:37:01.909Z,17.27
2018-07-14T19:39:30.656Z,17.23
2018-07-14T19:41:59.234Z,17.17
2018-07-14T19:44:27.734Z,17.08
2018-07-14T19:46:57.792Z,17.03
2018-07-14T19:49:26.317Z,17.03
2018-07-14T19:51:56.157Z,17.00
2018-07-14T19:54:24.789Z,16.95
2018-07-14T19:56:53.325Z,16.89
2018-07-14T19:59:21.869Z,16.82
2018-07-14T20:01:50.480Z,16.77
2018-07-14T20:04:19.033Z,16.66
2018-07-14T20:06:47.590Z,16.64
2018-07-14T20:09:16.142Z,16.61
2018-07-14T20:11:44.688Z,16.47
2018-07-14T20:14:14.976Z,16.39
2018-07-14T20:16:43.504Z,16.35
2018-07-14T20:19:13.020Z,16.37
2018-07-14T20:21:41.580Z,16.31
2018-07-14T20:24:10.150Z,16.30
2018-07-14T20:26:44.688Z,16.26
2018-07-14T20:29:13.249Z,16.20
2018-07-14T20:31:41.797Z,16.22
2018-07-14T20:34:11.296Z,16.19
2018-07-14T20:36:46.113Z,16.17
2018-07-14T20:39:20.894Z,16.23
2018-07-14T20:41:53.218Z,16.23
2018-07-14T20:44:30.244Z,16.18
2018-07-14T20:47:04.094Z,16.09
2018-07-14T20:49:35.465Z,16.04
2018-07-14T20:52:04.696Z,15.96
2018-07-14T20:54:39.603Z,15.93
2018-07-14T20:57:22.882Z,15.95
2018-07-14T20:59:58.783Z,15.97
2018-07-14T21:02:28.061Z,16.07
2018-07-14T21:04:57.744Z,16.04
2018-07-14T21:07:27.210Z,16.02
2018-07-14T21:10:15.001Z,15.97
2018-07-14T21:12:43.669Z,15.90
2018-07-14T21:15:12.133Z,15.92
2018-07-14T21:17:43.669Z,15.89
2018-07-14T21:20:14.211Z,15.86
2018-07-14T21:22:42.891Z,15.90
2018-07-14T21:25:11.447Z,15.89
2018-07-14T21:27:40.022Z,15.84
2018-07-14T21:30:08.632Z,15.83
2018-07-14T21:32:37.163Z,15.78
2018-07-14T21:35:05.694Z,15.71
2018-07-14T21:37:34.909Z,15.64
2018-07-14T21:40:03.487Z,15.54
2018-07-14T21:42:31.980Z,15.52
2018-07-14T21:45:00.545Z,15.54
2018-07-14T21:47:29.085Z,15.51
2018-07-14T21:49:57.616Z,15.46
2018-07-14T21:52:26.185Z,15.44
2018-07-14T21:54:56.698Z,15.41
2018-07-14T21:57:25.307Z,15.37
2018-07-14T21:59:53.890Z,15.34
2018-07-14T22:02:22.420Z,15.32
2018-07-14T22:04:51.952Z,15.30
2018-07-14T22:07:22.528Z,15.32
2018-07-14T22:09:51.063Z,15.35
2018-07-14T22:12:19.636Z,15.39
2018-07-14T22:14:49.215Z,15.38
2018-07-14T22:17:17.713Z,15.32
2018-07-14T22:19:47.178Z,15.31
2018-07-14T22:22:15.748Z,15.32
2018-07-14T22:24:44.288Z,15.32
2018-07-14T22:27:12.864Z,15.34
2018-07-14T22:29:41.415Z,15.28
2018-07-14T22:32:09.941Z,15.21
2018-07-14T22:34:38.571Z,15.16
2018-07-14T22:37:07.997Z,15.12
2018-07-14T22:39:36.545Z,15.11
2018-07-14T22:42:05.988Z,15.07
2018-07-14T22:44:34.525Z,15.02
2018-07-14T22:47:03.062Z,14.95
2018-07-14T22:49:31.615Z,15.09
2018-07-14T22:52:02.087Z,15.16
2018-07-14T22:54:30.625Z,15.20
2018-07-14T22:57:00.086Z,15.24
2018-07-14T22:59:35.632Z,15.22
2018-07-14T23:02:05.136Z,15.14
2018-07-14T23:04:33.685Z,15.05
2018-07-14T23:07:03.242Z,14.97
2018-07-14T23:09:31.786Z,14.83
2018-07-14T23:12:00.309Z,14.79
2018-07-14T23:14:28.878Z,14.77
2018-07-14T23:16:57.412Z,14.68
2018-07-14T23:19:25.977Z,14.63
2018-07-14T23:21:54.516Z,14.58
2018-07-14T23:24:23.991Z,14.52
2018-07-14T23:26:56.232Z,14.43
2018-07-14T23:29:24.759Z,14.39
2018-07-14T23:31:53.306Z,14.40
2018-07-14T23:34:21.840Z,14.49
2018-07-14T23:36:50.392Z,14.46
2018-07-14T23:39:20.819Z,14.39
2018-07-14T23:41:49.360Z,14.37
2018-07-14T23:44:17.921Z,14.29
2018-07-14T23:46:46.487Z,14.21
2018-07-14T23:49:15.060Z,14.16
2018-07-14T23:51:43.642Z,13.98
2018-07-14T23:54:15.220Z,13.89
2018-07-14T23:56:45.739Z,13.88
2018-07-14T23:59:14.286Z,13.99
